createdAt,value
2022-08-10T00:01:54.872Z,2.50
2022-08-10T00:04:23.375Z,2.80
2022-08-10T00:06:55.104Z,2.70
2022-08-10T00:09:23.241Z,2.53
2022-08-10T00:11:50.145Z,2.87
2022-08-10T00:14:17.220Z,2.72
2022-08-10T00:16:43.958Z,2.60
2022-08-10T00:19:10.743Z,2.70
2022-08-10T00:21:37.709Z,2.70
2022-08-10T00:24:04.711Z,2.40
2022-08-10T00:27:53.032Z,2.63
2022-08-10T00:29:18.623Z,2.75
2022-08-10T00:31:55.920Z,2.80
2022-08-10T00:34:25.926Z,2.70
2022-08-10T00:36:52.656Z,3.08
2022-08-10T00:39:19.450Z,2.80
2022-08-10T00:41:46.230Z,3.13
2022-08-10T00:44:32.973Z,2.63
2022-08-10T00:47:00.915Z,2.33
2022-08-10T00:49:28.555Z,2.55
2022-08-10T00:51:55.912Z,2.80
2022-08-10T00:54:24.181Z,2.90
2022-08-10T00:57:16.185Z,2.70
2022-08-10T00:59:58.575Z,2.53
2022-08-10T01:02:26.238Z,2.90
2022-08-10T01:05:00.000Z,2.53
2022-08-10T01:07:41.451Z,2.75
2022-08-10T01:10:42.532Z,2.78
2022-08-10T01:13:14.918Z,2.60
2022-08-10T01:16:01.504Z,3.05
2022-08-10T01:18:40.201Z,2.90
2022-08-10T01:21:28.490Z,2.95
2022-08-10T01:24:28.644Z,2.90
2022-08-10T01:27:04.194Z,2.60
2022-08-10T01:29:42.367Z,3.20
2022-08-10T01:32:13.539Z,3.05
2022-08-10T01:34:49.897Z,2.80
2022-08-10T01:37:21.183Z,2.83
2022-08-10T01:39:54.315Z,2.50
2022-08-10T01:42:23.546Z,3.08
2022-08-10T01:44:54.984Z,2.80
2022-08-10T01:47:46.098Z,2.88
2022-08-10T01:50:29.506Z,2.90
2022-08-10T01:53:02.677Z,2.90
2022-08-10T01:55:30.438Z,2.70
2022-08-10T01:58:00.635Z,2.63
2022-08-10T02:00:29.704Z,2.90
2022-08-10T02:02:58.121Z,2.73
2022-08-10T02:05:27.197Z,2.90
2022-08-10T02:07:56.953Z,2.92
2022-08-10T02:10:26.106Z,3.13
2022-08-10T02:12:56.628Z,3.30
2022-08-10T02:15:27.560Z,2.80
2022-08-10T02:18:01.813Z,2.90
2022-08-10T02:20:44.187Z,2.78
2022-08-10T02:23:25.359Z,2.88
2022-08-10T02:25:54.535Z,3.10
2022-08-10T02:28:30.975Z,3.10
2022-08-10T02:31:06.393Z,2.90
2022-08-10T02:33:37.362Z,2.95
2022-08-10T02:36:08.716Z,2.95
2022-08-10T02:38:59.665Z,3.10
2022-08-10T02:45:15.289Z,3.25
2022-08-10T02:45:16.176Z,3.10
2022-08-10T02:47:29.068Z,3.13
2022-08-10T02:50:29.342Z,3.00
2022-08-10T02:53:01.923Z,2.83
2022-08-10T02:55:42.714Z,3.33
2022-08-10T02:58:18.389Z,3.92
2022-08-10T03:00:53.225Z,3.38
2022-08-10T03:03:28.720Z,3.30
2022-08-10T03:06:04.530Z,3.60
2022-08-10T03:08:36.272Z,3.20
2022-08-10T03:11:04.989Z,3.22
2022-08-10T03:13:33.002Z,2.78
2022-08-10T03:16:01.493Z,2.70
2022-08-10T03:18:30.244Z,3.00
2022-08-10T03:20:58.773Z,3.10
2022-08-10T03:23:26.989Z,3.30
2022-08-10T03:25:57.020Z,3.38
2022-08-10T03:28:30.156Z,3.60
2022-08-10T03:30:59.416Z,3.13
2022-08-10T03:33:29.999Z,3.17
2022-08-10T03:36:42.644Z,3.30
2022-08-10T03:38:48.378Z,3.50
2022-08-10T03:41:16.785Z,3.40
2022-08-10T03:43:48.336Z,3.20
2022-08-10T03:46:18.740Z,3.30
2022-08-10T03:48:49.793Z,3.27
2022-08-10T03:51:19.619Z,3.28
2022-08-10T03:54:05.496Z,3.20
2022-08-10T03:56:38.939Z,3.40
2022-08-10T03:59:12.479Z,3.28
2022-08-10T04:02:45.904Z,2.90
2022-08-10T04:04:27.813Z,3.15
2022-08-10T04:06:57.559Z,3.40
2022-08-10T04:09:42.673Z,3.87
2022-08-10T04:12:15.317Z,3.07
2022-08-10T04:14:49.701Z,3.40
2022-08-10T04:18:04.577Z,3.30
2022-08-10T04:20:08.066Z,3.45
2022-08-10T04:22:36.577Z,3.60
2022-08-10T04:25:05.740Z,3.20
2022-08-10T04:27:32.771Z,2.85
2022-08-10T04:30:00.060Z,3.40
2022-08-10T04:32:28.410Z,3.60
2022-08-10T04:34:57.074Z,3.55
2022-08-10T04:37:24.793Z,3.70
2022-08-10T04:39:51.936Z,3.63
2022-08-10T04:42:18.963Z,3.40
2022-08-10T04:44:45.772Z,3.53
2022-08-10T04:47:12.463Z,3.80
2022-08-10T04:49:56.510Z,3.50
2022-08-10T04:52:25.353Z,3.58
2022-08-10T04:54:52.309Z,3.63
2022-08-10T04:57:19.670Z,3.60
2022-08-10T04:59:46.472Z,3.63
2022-08-10T05:02:38.631Z,3.72
2022-08-10T05:05:00.023Z,4.10
2022-08-10T05:07:26.810Z,3.70
2022-08-10T05:10:04.134Z,3.42
2022-08-10T05:12:36.454Z,3.58
2022-08-10T05:15:05.921Z,3.40
2022-08-10T05:17:34.662Z,3.60
2022-08-10T05:20:06.434Z,3.42
2022-08-10T05:22:42.336Z,3.85
2022-08-10T05:25:12.619Z,3.50
2022-08-10T05:27:40.359Z,3.50
2022-08-10T05:30:09.040Z,3.70
2022-08-10T05:32:55.734Z,3.70
2022-08-10T05:35:23.483Z,3.13
2022-08-10T05:38:13.231Z,3.15
2022-08-10T05:40:46.083Z,3.50
2022-08-10T05:43:16.836Z,3.20
2022-08-10T05:46:19.999Z,3.33
2022-08-10T05:48:53.979Z,3.50
2022-08-10T05:51:19.633Z,3.30
2022-08-10T05:54:03.316Z,3.30
2022-08-10T05:56:53.850Z,3.60
2022-08-10T06:00:35.327Z,3.70
2022-08-10T06:02:33.986Z,3.60
2022-08-10T06:04:58.983Z,3.47
2022-08-10T06:07:29.774Z,3.40
2022-08-10T06:09:59.138Z,3.65
2022-08-10T06:12:30.252Z,3.25
2022-08-10T06:15:05.409Z,3.75
2022-08-10T06:17:33.279Z,3.45
2022-08-10T06:20:01.161Z,3.50
2022-08-10T06:22:30.127Z,3.10
2022-08-10T06:25:32.095Z,2.50
2022-08-10T06:27:47.017Z,2.70
2022-08-10T06:30:20.916Z,2.70
2022-08-10T06:32:49.712Z,2.75
2022-08-10T06:35:17.449Z,3.13
2022-08-10T06:37:51.709Z,2.90
2022-08-10T06:40:19.557Z,2.60
2022-08-10T06:42:50.847Z,2.20
2022-08-10T06:45:22.755Z,2.70
2022-08-10T06:47:56.643Z,2.40
2022-08-10T06:50:45.588Z,2.50
2022-08-10T06:53:23.294Z,2.60
2022-08-10T06:55:57.290Z,2.92
2022-08-10T06:58:28.387Z,2.10
2022-08-10T07:00:56.627Z,2.38
2022-08-10T07:03:31.608Z,2.40
2022-08-10T07:06:00.484Z,2.70
2022-08-10T07:08:31.472Z,2.72
2022-08-10T07:10:59.420Z,2.88
2022-08-10T07:14:15.696Z,2.40
2022-08-10T07:16:15.726Z,2.70
2022-08-10T07:18:44.554Z,2.50
2022-08-10T07:21:12.717Z,2.88
2022-08-10T07:23:56.906Z,2.50
2022-08-10T07:26:27.336Z,2.70
2022-08-10T07:28:54.823Z,2.40
2022-08-10T07:31:33.019Z,2.23
2022-08-10T07:34:10.049Z,2.63
2022-08-10T07:36:39.333Z,2.40
2022-08-10T07:39:07.441Z,2.10
2022-08-10T07:41:38.097Z,2.45
2022-08-10T07:44:06.971Z,1.98
2022-08-10T07:46:35.328Z,1.92
2022-08-10T07:49:15.330Z,2.17
2022-08-10T07:51:54.447Z,2.53
2022-08-10T07:54:25.162Z,2.20
2022-08-10T07:56:55.671Z,2.00
2022-08-10T07:59:44.936Z,2.13
2022-08-10T08:02:24.490Z,2.20
2022-08-10T08:04:53.007Z,2.50
2022-08-10T08:07:21.593Z,21.47
2022-08-10T08:09:57.722Z,2.42
2022-08-10T08:12:31.428Z,2.37
2022-08-10T08:16:15.926Z,2.00
2022-08-10T08:17:59.649Z,2.10
2022-08-10T08:20:28.865Z,1.98
2022-08-10T08:24:05.582Z,2.10
2022-08-10T08:25:45.966Z,2.10
2022-08-10T08:28:13.553Z,2.10
2022-08-10T08:30:43.540Z,2.10
2022-08-10T08:33:20.039Z,2.20
2022-08-10T08:36:03.379Z,1.90
2022-08-10T08:38:34.324Z,2.00
2022-08-10T08:41:26.723Z,1.80
2022-08-10T08:44:12.018Z,2.00
2022-08-10T08:46:59.706Z,2.13
2022-08-10T08:50:08.208Z,1.80
2022-08-10T08:53:21.946Z,1.80
2022-08-10T08:56:07.661Z,1.75
2022-08-10T08:58:43.246Z,2.10
2022-08-10T09:01:19.510Z,1.70
2022-08-10T09:04:02.969Z,2.28
2022-08-10T09:07:03.230Z,2.30
2022-08-10T09:09:35.297Z,2.10
2022-08-10T09:12:05.022Z,2.05
2022-08-10T09:14:49.230Z,2.30
2022-08-10T09:17:28.815Z,14.98
2022-08-10T09:20:33.714Z,2.05
2022-08-10T09:23:14.108Z,3.40
2022-08-10T09:25:51.959Z,1.90
2022-08-10T09:28:27.135Z,1.90
2022-08-10T09:31:22.087Z,1.60
2022-08-10T09:36:24.759Z,1.80
2022-08-10T09:37:23.881Z,2.10
2022-08-10T09:40:59.727Z,2.20
2022-08-10T09:43:25.671Z,19.40
2022-08-10T09:46:11.787Z,1.40
2022-08-10T09:49:06.375Z,1.60
2022-08-10T09:52:23.637Z,6.80
2022-08-10T09:56:17.076Z,1.83
2022-08-10T09:58:31.422Z,36.25
2022-08-10T10:01:57.740Z,1.70
2022-08-10T10:04:22.367Z,113.15
2022-08-10T10:06:58.303Z,9.95
2022-08-10T10:09:59.668Z,11.80
2022-08-10T10:12:41.488Z,1.50
2022-08-10T10:15:25.213Z,1.70
2022-08-10T10:18:19.872Z,1.63
2022-08-10T10:21:05.579Z,488.02
2022-08-10T10:24:11.635Z,525.40
2022-08-10T10:26:59.856Z,523.95
2022-08-10T10:29:56.798Z,904.58
2022-08-10T10:32:46.073Z,558.45
2022-08-10T10:35:35.326Z,28.47
2022-08-10T10:38:04.242Z,4.60
2022-08-10T10:41:06.032Z,8.47
2022-08-10T10:43:58.963Z,3.40
2022-08-10T10:46:52.018Z,2.72
2022-08-10T10:49:49.990Z,3.10
2022-08-10T10:52:45.214Z,2.20
2022-08-10T10:56:13.307Z,2.30
2022-08-10T10:58:46.721Z,68.85
2022-08-10T11:01:22.850Z,380.55
2022-08-10T11:03:53.356Z,1.80
2022-08-10T11:06:39.831Z,283.40
2022-08-10T11:10:04.618Z,999.90
2022-08-10T11:12:19.819Z,999.90
2022-08-10T11:15:03.227Z,37.00
2022-08-10T11:17:46.092Z,1.60
2022-08-10T11:20:24.516Z,1.85
2022-08-10T11:23:25.638Z,1.70
2022-08-10T11:26:01.491Z,1.60
2022-08-10T11:28:37.219Z,1.60
2022-08-10T11:31:16.145Z,1.48
2022-08-10T11:34:48.539Z,1.50
2022-08-10T11:37:19.492Z,1.60
2022-08-10T11:40:05.046Z,1.65
2022-08-10T11:42:36.205Z,1.73
2022-08-10T11:45:16.219Z,1.80
2022-08-10T11:47:55.318Z,1.60
2022-08-10T11:50:26.115Z,1.70
2022-08-10T11:53:26.926Z,1.60
2022-08-10T11:56:03.644Z,1.50
2022-08-10T11:58:59.701Z,1.90
2022-08-10T12:01:31.405Z,1.60
2022-08-10T12:04:03.660Z,2.20
2022-08-10T12:06:54.314Z,2.05
2022-08-10T12:10:11.731Z,1.90
2022-08-10T12:12:08.313Z,1.80
2022-08-10T12:14:48.653Z,1.50
2022-08-10T12:17:27.113Z,1.70
2022-08-10T12:20:06.612Z,1.50
2022-08-10T12:22:49.138Z,8.57
2022-08-10T12:25:56.439Z,1.70
2022-08-10T12:28:20.185Z,2.13
2022-08-10T12:30:51.874Z,1.60
2022-08-10T12:34:01.195Z,1.77
2022-08-10T12:36:39.746Z,1.30
2022-08-10T12:39:28.222Z,1.40
2022-08-10T12:42:06.258Z,1.60
2022-08-10T12:44:59.573Z,1.70
2022-08-10T12:47:47.838Z,1.30
2022-08-10T12:50:37.093Z,1.50
2022-08-10T12:53:09.899Z,1.60
2022-08-10T12:55:39.095Z,1.50
2022-08-10T12:58:57.218Z,1.50
2022-08-10T13:01:15.211Z,1.80
2022-08-10T13:04:23.282Z,1.60
2022-08-10T13:06:41.573Z,1.80
2022-08-10T13:09:09.261Z,1.40
2022-08-10T13:12:35.399Z,1.70
2022-08-10T13:15:03.788Z,1.40
2022-08-10T13:17:52.611Z,1.40
2022-08-10T13:20:36.981Z,1.52
2022-08-10T13:23:17.248Z,2.00
2022-08-10T13:25:48.043Z,1.80
2022-08-10T13:28:37.821Z,1.50
2022-08-10T13:31:16.394Z,1.45
2022-08-10T13:34:41.783Z,1.60
2022-08-10T13:36:50.583Z,1.60
2022-08-10T13:39:24.446Z,1.60
2022-08-10T13:41:53.712Z,1.40
2022-08-10T13:44:32.734Z,1.47
2022-08-10T13:47:00.077Z,1.50
2022-08-10T13:49:30.317Z,1.40
2022-08-10T13:51:58.632Z,1.60
2022-08-10T13:54:29.092Z,1.48
2022-08-10T13:56:57.579Z,1.33
2022-08-10T14:00:34.868Z,1.52
2022-08-10T14:02:21.588Z,1.60
2022-08-10T14:04:48.439Z,1.60
2022-08-10T14:07:16.966Z,1.40
2022-08-10T14:09:47.552Z,1.50
2022-08-10T14:12:15.278Z,1.60
2022-08-10T14:14:45.340Z,1.45
2022-08-10T14:17:22.147Z,1.63
2022-08-10T14:19:58.945Z,1.70
2022-08-10T14:22:40.373Z,1.57
2022-08-10T14:25:12.714Z,1.35
2022-08-10T14:28:03.407Z,1.50
2022-08-10T14:30:32.907Z,1.80
2022-08-10T14:33:04.503Z,1.50
2022-08-10T14:36:19.385Z,1.77
2022-08-10T14:38:28.825Z,1.50
2022-08-10T14:40:58.740Z,1.70
2022-08-10T14:43:32.912Z,1.58
2022-08-10T14:46:08.378Z,1.55
2022-08-10T14:48:42.582Z,1.48
2022-08-10T14:51:12.723Z,1.50
2022-08-10T14:53:44.515Z,1.33
2022-08-10T14:56:14.564Z,1.70
2022-08-10T14:58:59.019Z,1.30
2022-08-10T15:02:00.901Z,1.35
2022-08-10T15:04:24.657Z,1.80
2022-08-10T15:07:01.071Z,999.90
2022-08-10T15:10:00.831Z,999.90
2022-08-10T15:12:38.270Z,999.90
2022-08-10T15:15:09.611Z,999.90
2022-08-10T15:17:42.110Z,999.90
2022-08-10T15:20:23.777Z,999.90
2022-08-10T15:22:59.532Z,291.20
2022-08-10T15:25:28.417Z,999.90
2022-08-10T15:28:10.905Z,999.90
2022-08-10T15:30:56.241Z,1.25
2022-08-10T15:34:08.763Z,399.02
2022-08-10T15:37:01.945Z,999.90
2022-08-10T15:40:25.691Z,999.90
2022-08-10T15:42:41.690Z,1.50
2022-08-10T15:45:19.580Z,1.60
2022-08-10T15:47:52.870Z,1.50
2022-08-10T15:50:39.911Z,207.00
2022-08-10T15:53:15.782Z,1.80
2022-08-10T15:55:58.698Z,1.83
2022-08-10T15:58:39.710Z,1.60
2022-08-10T16:02:15.063Z,1.50
2022-08-10T16:04:32.088Z,31.50
2022-08-10T16:07:02.526Z,706.80
2022-08-10T16:10:22.990Z,137.88
2022-08-10T16:12:32.612Z,946.42
2022-08-10T16:15:08.202Z,999.90
2022-08-10T16:17:54.307Z,999.90
2022-08-10T16:20:53.189Z,999.90
2022-08-10T16:23:26.368Z,268.27
2022-08-10T16:26:14.893Z,976.10
2022-08-10T16:28:55.490Z,999.90
2022-08-10T16:31:25.288Z,999.90
2022-08-10T16:33:55.755Z,999.90
2022-08-10T16:36:32.017Z,999.90
2022-08-10T16:39:00.178Z,999.90
2022-08-10T16:42:03.839Z,999.90
2022-08-10T16:44:18.540Z,999.90
2022-08-10T16:46:46.285Z,999.90
2022-08-10T16:49:18.601Z,880.95
2022-08-10T16:51:51.068Z,999.90
2022-08-10T16:54:26.830Z,999.90
2022-08-10T16:57:00.598Z,53.78
2022-08-10T16:59:30.853Z,391.10
2022-08-10T17:01:59.728Z,2.35
2022-08-10T17:04:29.002Z,1.70
2022-08-10T17:07:02.907Z,2.00
2022-08-10T17:09:33.027Z,2.00
2022-08-10T17:12:13.309Z,1.60
2022-08-10T17:14:42.349Z,1.60
2022-08-10T17:17:17.786Z,2.47
2022-08-10T17:19:45.614Z,2.40
2022-08-10T17:22:20.039Z,2.17
2022-08-10T17:24:54.980Z,1.90
2022-08-10T17:28:05.446Z,1.70
2022-08-10T17:30:15.985Z,1.95
2022-08-10T17:33:04.963Z,1.90
2022-08-10T17:35:36.004Z,12.63
2022-08-10T17:38:17.712Z,11.38
2022-08-10T17:40:48.280Z,999.90
2022-08-10T17:43:59.297Z,903.40
2022-08-10T17:46:12.759Z,285.75
2022-08-10T17:48:41.894Z,494.90
2022-08-10T17:51:12.920Z,2.87
2022-08-10T17:53:41.648Z,12.68
2022-08-10T17:56:10.724Z,2.17
2022-08-10T17:58:40.228Z,6.95
2022-08-10T18:01:40.275Z,8.65
2022-08-10T18:04:05.789Z,2.85
2022-08-10T18:06:33.142Z,878.45
2022-08-10T18:09:09.620Z,999.90
2022-08-10T18:11:43.589Z,999.90
2022-08-10T18:14:12.886Z,999.90
2022-08-10T18:16:41.994Z,999.90
2022-08-10T18:19:13.554Z,999.90
2022-08-10T18:21:42.663Z,999.90
2022-08-10T18:24:21.044Z,999.90
2022-08-10T18:26:52.584Z,999.90
2022-08-10T18:29:22.357Z,999.90
2022-08-10T18:31:55.804Z,999.90
2022-08-10T18:34:24.619Z,999.90
2022-08-10T18:36:52.950Z,825.75
2022-08-10T18:39:28.322Z,11.83
2022-08-10T18:42:12.648Z,830.13
2022-08-10T18:44:52.288Z,878.63
2022-08-10T18:47:36.434Z,336.50
2022-08-10T18:50:14.246Z,155.05
2022-08-10T18:52:46.043Z,97.00
2022-08-10T18:56:08.517Z,15.75
2022-08-10T18:59:13.115Z,2.70
2022-08-10T19:02:12.230Z,157.18
2022-08-10T19:05:06.745Z,488.88
2022-08-10T19:08:31.615Z,181.50
2022-08-10T19:11:28.291Z,2.80
2022-08-10T19:14:12.270Z,2.77
2022-08-10T19:16:54.207Z,38.08
2022-08-10T19:19:26.071Z,2.40
2022-08-10T19:22:01.323Z,2.20
2022-08-10T19:24:33.228Z,2.65
2022-08-10T19:27:12.640Z,11.25
2022-08-10T19:30:12.138Z,2.30
2022-08-10T19:33:04.463Z,2.30
2022-08-10T19:36:03.508Z,2.30
2022-08-10T19:39:03.706Z,2.10
2022-08-10T19:41:45.009Z,5.00
2022-08-10T19:44:36.529Z,2.50
2022-08-10T19:47:16.568Z,348.52
2022-08-10T19:50:14.589Z,2.47
2022-08-10T19:52:55.347Z,2.70
2022-08-10T19:55:34.062Z,3.17
2022-08-10T19:58:22.434Z,3.15
2022-08-10T20:01:02.814Z,3.30
2022-08-10T20:03:45.999Z,3.00
2022-08-10T20:06:30.562Z,999.90
2022-08-10T20:09:33.967Z,581.38
2022-08-10T20:12:08.223Z,422.27
2022-08-10T20:15:09.360Z,999.90
2022-08-10T20:18:00.940Z,999.90
2022-08-10T20:20:56.102Z,999.90
2022-08-10T20:23:35.014Z,808.70
2022-08-10T20:26:18.214Z,695.25
2022-08-10T20:28:56.902Z,352.17
2022-08-10T20:31:33.769Z,999.90
2022-08-10T20:34:05.447Z,999.05
2022-08-10T20:36:36.897Z,900.50
2022-08-10T20:39:11.832Z,100.55
2022-08-10T20:41:57.931Z,364.15
2022-08-10T20:44:49.720Z,289.33
2022-08-10T20:47:53.773Z,13.82
2022-08-10T20:51:04.994Z,3.58
2022-08-10T20:53:45.201Z,26.07
2022-08-10T20:56:40.526Z,3.40
2022-08-10T20:59:33.365Z,40.75
2022-08-10T21:02:28.122Z,92.50
2022-08-10T21:05:01.565Z,999.90
2022-08-10T21:08:02.169Z,999.90
2022-08-10T21:10:38.589Z,840.58
2022-08-10T21:13:14.076Z,609.00
2022-08-10T21:15:49.915Z,465.02
2022-08-10T21:18:31.845Z,345.10
2022-08-10T21:21:16.570Z,353.08
2022-08-10T21:23:50.630Z,813.33
2022-08-10T21:26:39.509Z,830.72
2022-08-10T21:29:37.922Z,468.20
2022-08-10T21:32:40.499Z,455.00
2022-08-10T21:35:37.431Z,790.78
2022-08-10T21:38:35.255Z,428.13
2022-08-10T21:41:57.503Z,118.15
2022-08-10T21:45:08.893Z,3.55
2022-08-10T21:48:17.909Z,277.90
2022-08-10T21:51:24.281Z,287.63
2022-08-10T21:54:30.646Z,405.60
2022-08-10T21:57:46.573Z,502.17
2022-08-10T22:00:34.100Z,972.78
2022-08-10T22:03:22.324Z,535.60
2022-08-10T22:06:11.851Z,999.90
2022-08-10T22:09:07.027Z,865.22
2022-08-10T22:12:01.102Z,858.58
2022-08-10T22:14:51.888Z,569.53
2022-08-10T22:18:10.861Z,550.33
2022-08-10T22:20:49.576Z,454.60
2022-08-10T22:23:40.863Z,860.17
2022-08-10T22:30:06.600Z,999.90
2022-08-10T22:31:26.142Z,730.80
2022-08-10T22:32:58.084Z,999.90
2022-08-10T22:36:04.410Z,423.95
2022-08-10T22:40:12.210Z,25.27
2022-08-10T22:42:58.211Z,10.60
2022-08-10T22:45:45.092Z,51.95
2022-08-10T22:48:31.131Z,355.60
2022-08-10T22:51:14.947Z,167.40
2022-08-10T22:54:31.172Z,520.80
2022-08-10T22:57:20.120Z,999.90
2022-08-10T22:59:49.447Z,999.90
2022-08-10T23:02:32.389Z,999.90
2022-08-10T23:05:11.533Z,478.80
2022-08-10T23:08:03.874Z,95.28
2022-08-10T23:10:41.207Z,323.38
2022-08-10T23:13:14.206Z,8.55
2022-08-10T23:16:22.209Z,13.95
2022-08-10T23:19:10.760Z,3.22
2022-08-10T23:22:08.861Z,95.65
2022-08-10T23:24:41.711Z,3.83
2022-08-10T23:27:12.876Z,3.67
2022-08-10T23:30:09.292Z,2.88
2022-08-10T23:32:40.781Z,2.80
2022-08-10T23:36:27.798Z,2.70
2022-08-10T23:38:03.196Z,3.40
2022-08-10T23:40:30.239Z,3.30
2022-08-10T23:42:58.473Z,2.90
2022-08-10T23:45:52.500Z,2.70
2022-08-10T23:48:20.199Z,6.25
2022-08-10T23:50:58.189Z,3.00
2022-08-10T23:53:35.224Z,2.80
2022-08-10T23:56:14.159Z,3.80
2022-08-10T23:58:49.603Z,4.38
